Portada
METAR-TAF:

METAR-TAF

Aeroports :

Maracaibo, Veneçuela

latitud: 10-34N, longitud: 071-44W, altitud: 66 m

METAR: manca

Hora: 00:07 (04:07 UTC)

Pronòstic

L'informe es va fer fa 6 hores i 7 minuts, a les 22:00 UTC
Pronòstic vàlid del 28 a les 00 UTC al 01 a les 00 UTC
Vent 6 kt del Nord
Visibilitat 10 km o més
Escasses núvols a una alçada de 1600 ft
Núvols disperses a una alçada de 10000 ft
Evolucionant progressivament
l' 28 a les 00 UTC al 28 a les 04 UTC
Vent 8 kt del Nord/Nord-Oest

TAF: SVMC 282200Z 2800/0100 36006KT 9999 FEW016 SCT100 TX34/2719Z TN24/2608Z BECMG 2800/2804 34008KT

Observacions i pronòstics meteorològics de més de 4000 aeroports (METAR i TAF).

Les estacions disponibles són els punts grocs i vermells al mapa.

Posi el ratolí al punt desitjat per veure el nom de l'estació.

Feu clic per veure les observacions i els pronòstics meteorològics.

Per canviar el mapa: feu clic els botons verds amb una creu de color negre per apropar; al botó verd amb un guió per allunyar la imatge; o en les fletxes verdes per a mapes adjacents.


METAR-TAF: